Terminal Aerodrome Forecast
Issued by NWS

Home | Current Version | Previous Version | Text Only | Print | Product List | Glossary On
Versions: 1 2 3 4 5 6 7 8 9 10 11 12 13 14 15 16 17 18 19 20 21
000
FTUS43 KMQT 212300
TAFSAW
TAF
KSAW 212329Z 2200/2224 35010G15KT P6SM OVC025
      TEMPO 2200/2202 SCT025
     FM220200 34004KT P6SM SKC
     FM221400 27010KT P6SM SKC
      AMD LTD TO CLD VIS AND WIND 2202/2210=

USA.gov is the U.S. government's official web portal to all federal, state and local government web resources and services.